Time;durP1;ratioP1;P1;durP2;ratioP2;P2;SDS_P1;SDS_P2;PMS_P1;PMS_P2;Temp;Humidity;BMP_temperature;BMP_pressure;BME280_temperature;BME280_humidity;BME280_pressure;Samples;Min_cycle;Max_cycle;Signal;HPM_P1;HPM_P2
2021/07/16 00:01:38;;;;;;;0.60;0.60;;;24.60;69.60;;;;;;4998399;28;20291;-55
2021/07/16 00:04:05;;;;;;;0.80;0.80;;;24.50;69.40;;;;;;4996011;28;20242;-54
2021/07/16 00:06:31;;;;;;;0.70;0.70;;;24.50;69.40;;;;;;4995126;28;20206;-54
2021/07/16 00:08:58;;;;;;;0.70;0.70;;;24.50;69.40;;;;;;4994574;28;20247;-52
2021/07/16 00:11:24;;;;;;;1.25;0.60;;;24.60;69.40;;;;;;4992459;28;20195;-52
2021/07/16 00:13:50;;;;;;;0.70;0.70;;;24.50;69.30;;;;;;4998689;28;20199;-53
2021/07/16 00:16:17;;;;;;;1.15;0.95;;;24.60;69.40;;;;;;4999574;28;20229;-55
2021/07/16 00:18:43;;;;;;;1.10;1.00;;;24.50;69.30;;;;;;5001975;28;20216;-51
2021/07/16 00:21:10;;;;;;;0.70;0.70;;;24.50;69.30;;;;;;4995065;28;20203;-53
2021/07/16 00:23:37;;;;;;;0.80;0.80;;;24.50;69.20;;;;;;4999121;28;20237;-53
2021/07/16 00:26:04;;;;;;;0.73;0.73;;;24.50;69.20;;;;;;4995911;28;20219;-52
2021/07/16 00:28:30;;;;;;;0.70;0.70;;;24.50;69.20;;;;;;4995409;28;20233;-55
2021/07/16 00:30:57;;;;;;;0.85;0.85;;;24.50;69.20;;;;;;5007402;28;20654;-50
2021/07/16 00:33:23;;;;;;;0.93;0.80;;;24.50;69.20;;;;;;4989168;28;20200;-50
2021/07/16 00:35:49;;;;;;;0.70;0.70;;;24.60;69.40;;;;;;4984236;28;20210;-51
2021/07/16 00:38:16;;;;;;;0.88;0.77;;;24.50;69.30;;;;;;4994864;28;20228;-53
2021/07/16 00:40:42;;;;;;;1.05;0.90;;;24.50;69.20;;;;;;4990542;28;20256;-54
2021/07/16 00:43:09;;;;;;;0.75;0.70;;;24.50;69.30;;;;;;5006696;28;20223;-55
2021/07/16 00:45:35;;;;;;;1.17;0.75;;;24.50;69.30;;;;;;5003744;28;20218;-55
2021/07/16 00:48:02;;;;;;;0.70;0.68;;;24.50;69.30;;;;;;4993738;28;20302;-51
2021/07/16 00:50:28;;;;;;;0.85;0.85;;;24.50;69.30;;;;;;4991532;28;20326;-56
2021/07/16 00:52:55;;;;;;;0.80;0.80;;;24.50;69.30;;;;;;4991166;28;20200;-56
2021/07/16 00:55:21;;;;;;;0.90;0.82;;;24.50;69.20;;;;;;5004492;28;20200;-57
2021/07/16 00:57:47;;;;;;;0.80;0.80;;;24.50;69.20;;;;;;4994174;28;20220;-51
2021/07/16 01:00:14;;;;;;;0.85;0.85;;;24.50;69.30;;;;;;4995050;28;20208;-52
2021/07/16 01:02:40;;;;;;;0.60;0.60;;;24.50;69.20;;;;;;4996086;28;20202;-54
2021/07/16 01:05:07;;;;;;;0.93;0.70;;;24.50;69.30;;;;;;4999659;28;20212;-51
2021/07/16 01:07:33;;;;;;;0.70;0.70;;;24.50;69.20;;;;;;4992964;28;20196;-49
2021/07/16 01:10:00;;;;;;;0.82;0.82;;;24.50;69.30;;;;;;5002576;28;20202;-54
2021/07/16 01:12:26;;;;;;;0.70;0.70;;;24.50;69.20;;;;;;4994698;28;20564;-52
2021/07/16 01:14:53;;;;;;;0.85;0.80;;;24.50;69.20;;;;;;4997457;28;20238;-55
2021/07/16 01:17:19;;;;;;;0.73;0.73;;;24.50;69.20;;;;;;4993902;28;20200;-52
2021/07/16 01:19:46;;;;;;;0.70;0.70;;;24.60;69.30;;;;;;4990530;28;20200;-53
2021/07/16 01:22:12;;;;;;;0.70;0.70;;;24.50;69.20;;;;;;5000491;28;20217;-55
2021/07/16 01:24:39;;;;;;;0.70;0.70;;;24.50;69.20;;;;;;4996558;28;20227;-55
2021/07/16 01:27:05;;;;;;;0.65;0.65;;;24.60;69.30;;;;;;4992669;28;20210;-52
2021/07/16 01:29:31;;;;;;;0.88;0.77;;;24.60;69.30;;;;;;4998822;28;20219;-51
2021/07/16 01:31:58;;;;;;;1.05;0.80;;;24.60;69.30;;;;;;4998437;28;20215;-57
2021/07/16 01:34:24;;;;;;;0.80;0.80;;;24.50;69.20;;;;;;4990485;28;20212;-51
2021/07/16 01:36:51;;;;;;;0.60;0.60;;;24.50;69.20;;;;;;4994211;28;20222;-56
2021/07/16 01:39:17;;;;;;;0.70;0.70;;;24.50;69.20;;;;;;4990876;28;20223;-55
2021/07/16 01:41:44;;;;;;;0.80;0.80;;;24.50;69.20;;;;;;4999085;28;20329;-53
2021/07/16 01:44:10;;;;;;;0.70;0.70;;;24.50;69.20;;;;;;4997974;28;20237;-50
2021/07/16 01:46:36;;;;;;;0.70;0.70;;;24.50;69.20;;;;;;4993385;28;20207;-53
2021/07/16 01:49:03;;;;;;;0.60;0.60;;;24.50;69.20;;;;;;4990909;28;20227;-54
2021/07/16 01:51:29;;;;;;;0.70;0.70;;;24.50;69.20;;;;;;4995469;28;20227;-54
2021/07/16 01:53:56;;;;;;;0.60;0.60;;;24.50;69.10;;;;;;4998599;28;20573;-55
2021/07/16 01:56:22;;;;;;;0.73;0.73;;;24.50;69.10;;;;;;4995012;28;20539;-55
2021/07/16 01:58:49;;;;;;;0.82;0.80;;;24.50;69.10;;;;;;4996070;28;20693;-55
2021/07/16 02:01:16;;;;;;;0.80;0.80;;;24.50;69.10;;;;;;4996086;28;20203;-54
2021/07/16 02:03:42;;;;;;;0.60;0.60;;;24.50;69.10;;;;;;4997928;28;20238;-55
2021/07/16 02:06:09;;;;;;;0.63;0.63;;;24.50;69.10;;;;;;4994400;28;20290;-55
2021/07/16 02:08:35;;;;;;;0.68;0.68;;;24.50;69.10;;;;;;5005902;28;20223;-56
2021/07/16 02:11:01;;;;;;;0.70;0.70;;;24.50;69.10;;;;;;4990761;28;20234;-55
2021/07/16 02:13:28;;;;;;;0.60;0.60;;;24.50;69.10;;;;;;4986198;28;20214;-56
2021/07/16 02:15:54;;;;;;;1.38;0.70;;;24.50;69.10;;;;;;4991994;28;20203;-55
2021/07/16 02:18:21;;;;;;;0.60;0.60;;;24.50;69.10;;;;;;4999290;28;20790;-55
2021/07/16 02:20:47;;;;;;;0.70;0.60;;;24.50;69.20;;;;;;4993873;28;20626;-55
2021/07/16 02:23:14;;;;;;;0.68;0.68;;;24.50;69.10;;;;;;4999062;28;20211;-56
2021/07/16 02:25:40;;;;;;;0.70;0.70;;;24.50;69.10;;;;;;5006098;28;20215;-53
2021/07/16 02:28:07;;;;;;;0.70;0.70;;;24.50;69.10;;;;;;4993151;28;20347;-52
2021/07/16 02:30:33;;;;;;;0.63;0.63;;;24.50;69.10;;;;;;5008106;28;20207;-57
2021/07/16 02:32:59;;;;;;;0.68;0.60;;;24.50;69.10;;;;;;5003600;28;20199;-53
2021/07/16 02:35:26;;;;;;;0.80;0.80;;;24.50;69.30;;;;;;5004168;28;20290;-53
2021/07/16 02:37:52;;;;;;;0.63;0.63;;;24.50;69.20;;;;;;4995001;28;20236;-50
2021/07/16 02:40:19;;;;;;;0.80;0.70;;;24.50;69.20;;;;;;5002806;28;20218;-56
2021/07/16 02:42:45;;;;;;;0.70;0.70;;;24.50;69.10;;;;;;4993756;28;20199;-55
2021/07/16 02:45:12;;;;;;;0.80;0.70;;;24.50;69.20;;;;;;4998594;28;20231;-55
2021/07/16 02:47:38;;;;;;;0.70;0.70;;;24.50;69.30;;;;;;4994766;28;20231;-50
2021/07/16 02:50:05;;;;;;;0.70;0.70;;;24.50;69.30;;;;;;5005578;28;20237;-55
2021/07/16 02:52:31;;;;;;;0.70;0.70;;;24.50;69.20;;;;;;4996964;28;20203;-55
2021/07/16 02:54:57;;;;;;;0.80;0.80;;;24.60;69.30;;;;;;4993335;28;20591;-55
2021/07/16 02:57:24;;;;;;;0.98;0.70;;;24.60;69.30;;;;;;4996453;28;20732;-55
2021/07/16 02:59:50;;;;;;;0.60;0.60;;;24.50;69.20;;;;;;5011118;28;20624;-52
2021/07/16 03:02:17;;;;;;;0.50;0.50;;;24.50;69.10;;;;;;4991600;28;20653;-56
2021/07/16 03:04:46;;;;;;;0.93;0.93;;;24.50;69.20;;;;;;4997416;28;20695;-55
2021/07/16 03:07:12;;;;;;;0.70;0.60;;;24.50;69.20;;;;;;4993088;28;20223;-55
2021/07/16 03:09:39;;;;;;;0.60;0.60;;;24.50;69.20;;;;;;5010158;28;20229;-54
2021/07/16 03:12:05;;;;;;;0.77;0.77;;;24.50;69.20;;;;;;4993563;28;20287;-55
2021/07/16 03:14:31;;;;;;;0.90;0.90;;;24.50;69.20;;;;;;5001219;28;20204;-51
2021/07/16 03:16:58;;;;;;;0.70;0.70;;;24.50;69.30;;;;;;4986099;28;20214;-52
2021/07/16 03:19:24;;;;;;;0.88;0.88;;;24.50;69.90;;;;;;4992883;28;20290;-53
2021/07/16 03:21:51;;;;;;;0.60;0.60;;;24.50;69.30;;;;;;4996158;28;20242;-52
2021/07/16 03:24:17;;;;;;;0.68;0.68;;;24.50;69.20;;;;;;5000466;28;20231;-52
2021/07/16 03:26:44;;;;;;;2.55;0.93;;;24.50;69.20;;;;;;4993120;28;20201;-53
2021/07/16 03:29:10;;;;;;;0.80;0.80;;;24.50;69.20;;;;;;5000311;28;20209;-55
2021/07/16 03:31:37;;;;;;;0.70;0.70;;;24.50;69.10;;;;;;4996765;28;20208;-52
2021/07/16 03:34:03;;;;;;;0.70;0.70;;;24.50;69.10;;;;;;4995077;28;20300;-53
2021/07/16 03:36:30;;;;;;;0.80;0.70;;;24.50;69.20;;;;;;4986541;28;20200;-55
2021/07/16 03:38:56;;;;;;;0.52;0.50;;;24.50;69.20;;;;;;4973537;28;20706;-55
2021/07/16 03:41:23;;;;;;;0.77;0.70;;;24.50;69.20;;;;;;4998955;28;20652;-55
2021/07/16 03:43:49;;;;;;;0.70;0.70;;;24.50;69.10;;;;;;4997214;28;20531;-54
2021/07/16 03:46:16;;;;;;;0.75;0.75;;;24.50;69.10;;;;;;4993084;28;20660;-53
2021/07/16 03:48:42;;;;;;;0.73;0.65;;;24.50;69.10;;;;;;4996184;28;20239;-53
2021/07/16 03:51:09;;;;;;;0.82;0.60;;;24.50;69.10;;;;;;4992687;28;20291;-53
2021/07/16 03:53:35;;;;;;;0.80;0.80;;;24.50;69.20;;;;;;4991431;28;20200;-56
2021/07/16 03:56:01;;;;;;;0.80;0.75;;;24.50;69.10;;;;;;5004193;28;20208;-53
2021/07/16 03:58:28;;;;;;;0.60;0.60;;;24.50;69.10;;;;;;4994403;28;20224;-55
2021/07/16 04:00:54;;;;;;;0.60;0.60;;;24.50;69.10;;;;;;4994139;28;20200;-55
2021/07/16 04:03:21;;;;;;;0.60;0.60;;;24.50;69.10;;;;;;4993400;28;20218;-54
2021/07/16 04:05:48;;;;;;;0.85;0.70;;;24.50;69.00;;;;;;4998104;28;20235;-55
2021/07/16 04:08:17;;;;;;;0.70;0.70;;;24.60;69.20;;;;;;4992785;28;20228;-52
2021/07/16 04:10:43;;;;;;;0.52;0.50;;;24.50;69.10;;;;;;4998937;28;20287;-55
2021/07/16 04:13:10;;;;;;;1.02;0.80;;;24.50;69.00;;;;;;4993183;28;20204;-55
2021/07/16 04:15:36;;;;;;;0.80;0.60;;;24.50;69.00;;;;;;5000362;28;20223;-53
2021/07/16 04:18:03;;;;;;;0.60;0.60;;;24.50;69.00;;;;;;4995086;28;20219;-53
2021/07/16 04:20:29;;;;;;;0.60;0.60;;;24.50;69.00;;;;;;5007392;28;20213;-55
2021/07/16 04:22:56;;;;;;;0.52;0.50;;;24.50;69.10;;;;;;4992959;28;20214;-53
2021/07/16 04:25:22;;;;;;;0.60;0.60;;;24.60;69.20;;;;;;5007334;28;20231;-53
2021/07/16 04:27:49;;;;;;;0.50;0.50;;;24.50;69.00;;;;;;5000866;28;20224;-55
2021/07/16 04:30:15;;;;;;;1.17;0.68;;;24.50;69.10;;;;;;4997242;28;20203;-53
2021/07/16 04:32:41;;;;;;;0.70;0.70;;;24.50;69.00;;;;;;5011422;28;20199;-55
2021/07/16 04:35:08;;;;;;;0.60;0.60;;;24.50;69.00;;;;;;4998771;28;20204;-52
2021/07/16 04:37:34;;;;;;;0.77;0.70;;;24.50;69.10;;;;;;4994749;28;20235;-55
2021/07/16 04:40:01;;;;;;;0.88;0.77;;;24.50;69.00;;;;;;4992597;28;20226;-55
2021/07/16 04:42:27;;;;;;;0.60;0.60;;;24.50;68.90;;;;;;4996273;28;20204;-53
2021/07/16 04:44:54;;;;;;;0.50;0.50;;;24.50;68.90;;;;;;4995788;28;20227;-55
2021/07/16 04:47:20;;;;;;;0.75;0.75;;;24.50;68.90;;;;;;5005937;28;20230;-55
2021/07/16 04:49:47;;;;;;;0.60;0.60;;;24.60;69.00;;;;;;4997696;28;20219;-55
2021/07/16 04:52:13;;;;;;;0.60;0.60;;;24.50;68.90;;;;;;4992062;28;20204;-54
2021/07/16 04:54:40;;;;;;;0.65;0.60;;;24.50;68.90;;;;;;4994040;28;20204;-54
2021/07/16 04:57:08;;;;;;;0.65;0.65;;;24.50;68.90;;;;;;4991512;28;20311;-54
2021/07/16 04:59:35;;;;;;;0.95;0.70;;;24.50;68.90;;;;;;4997787;28;20295;-55
2021/07/16 05:02:01;;;;;;;0.63;0.63;;;24.50;68.90;;;;;;4993105;28;20219;-55
2021/07/16 05:04:27;;;;;;;0.60;0.60;;;24.50;68.90;;;;;;5007398;28;20223;-54
2021/07/16 05:06:54;;;;;;;0.80;0.80;;;24.50;68.90;;;;;;4997986;28;20296;-56
2021/07/16 05:09:20;;;;;;;0.70;0.70;;;24.50;68.90;;;;;;4999917;28;20303;-56
2021/07/16 05:11:47;;;;;;;0.60;0.60;;;24.60;68.90;;;;;;4993847;28;20218;-54
2021/07/16 05:14:13;;;;;;;0.70;0.70;;;24.50;68.90;;;;;;4998806;28;20656;-54
2021/07/16 05:16:40;;;;;;;0.65;0.60;;;24.50;68.90;;;;;;4990741;28;20206;-54
2021/07/16 05:19:06;;;;;;;0.50;0.50;;;24.50;68.90;;;;;;4992956;28;20277;-54
2021/07/16 05:21:34;;;;;;;0.63;0.63;;;24.50;68.90;;;;;;4980195;28;20231;-50
2021/07/16 05:24:00;;;;;;;0.50;0.50;;;24.50;68.90;;;;;;4996827;28;20591;-53
2021/07/16 05:26:27;;;;;;;0.73;0.73;;;24.50;68.80;;;;;;4992127;28;20207;-54
2021/07/16 05:28:53;;;;;;;0.70;0.70;;;24.60;69.00;;;;;;4983123;28;20215;-52
2021/07/16 05:31:20;;;;;;;0.77;0.70;;;24.50;68.80;;;;;;4995135;28;20204;-53
2021/07/16 05:33:46;;;;;;;0.73;0.60;;;24.50;68.90;;;;;;4991900;28;20298;-56
2021/07/16 05:36:13;;;;;;;0.98;0.70;;;24.60;69.00;;;;;;4994492;28;20215;-52
2021/07/16 05:38:39;;;;;;;0.50;0.50;;;24.60;68.90;;;;;;5001622;28;20223;-53
2021/07/16 05:41:06;;;;;;;0.70;0.70;;;24.60;69.00;;;;;;4991764;28;20204;-54
2021/07/16 05:43:32;;;;;;;0.70;0.70;;;24.50;68.80;;;;;;4994289;28;20206;-49
2021/07/16 05:45:58;;;;;;;0.82;0.82;;;24.50;68.80;;;;;;4997387;28;20235;-51
2021/07/16 05:48:25;;;;;;;0.70;0.70;;;24.60;68.90;;;;;;4990389;28;20229;-54
2021/07/16 05:50:52;;;;;;;0.65;0.60;;;24.50;68.90;;;;;;4990396;28;20207;-55
2021/07/16 05:53:18;;;;;;;0.60;0.60;;;24.60;69.00;;;;;;4990419;28;20258;-51
2021/07/16 05:55:44;;;;;;;0.70;0.70;;;24.50;68.90;;;;;;4990556;28;20221;-55
2021/07/16 05:58:11;;;;;;;0.55;0.55;;;24.60;69.00;;;;;;4991390;28;20227;-55
2021/07/16 06:00:37;;;;;;;0.63;0.63;;;24.60;69.00;;;;;;4990676;28;20229;-55
2021/07/16 06:03:04;;;;;;;0.70;0.70;;;24.50;68.90;;;;;;4997069;28;20213;-53
2021/07/16 06:05:31;;;;;;;0.70;0.70;;;24.60;69.60;;;;;;5001503;28;20235;-54
2021/07/16 06:07:58;;;;;;;0.50;0.50;;;24.60;68.90;;;;;;4998723;28;20766;-54
2021/07/16 06:10:24;;;;;;;0.60;0.60;;;24.60;68.90;;;;;;4995274;28;20632;-50
2021/07/16 06:12:51;;;;;;;1.50;0.65;;;24.60;68.80;;;;;;4993050;28;20393;-54
2021/07/16 06:15:17;;;;;;;0.60;0.60;;;24.60;68.90;;;;;;4994077;28;20229;-55
2021/07/16 06:17:44;;;;;;;0.85;0.70;;;24.60;68.90;;;;;;5007429;28;20223;-51
2021/07/16 06:20:10;;;;;;;0.60;0.60;;;24.60;68.90;;;;;;4992651;28;20293;-54
2021/07/16 06:22:36;;;;;;;0.75;0.75;;;24.60;68.90;;;;;;4992226;28;20226;-52
2021/07/16 06:25:03;;;;;;;0.75;0.75;;;24.60;69.60;;;;;;5006682;28;20242;-50
2021/07/16 06:27:29;;;;;;;0.70;0.70;;;24.60;68.80;;;;;;4992707;28;20223;-55
2021/07/16 06:29:56;;;;;;;0.70;0.70;;;24.60;68.90;;;;;;4997579;28;20199;-54
2021/07/16 06:32:22;;;;;;;0.63;0.63;;;24.60;68.90;;;;;;5007996;28;20207;-51
2021/07/16 06:34:49;;;;;;;0.85;0.85;;;24.60;68.90;;;;;;4979857;28;20200;-50
2021/07/16 06:37:15;;;;;;;0.75;0.70;;;24.60;68.90;;;;;;4997343;28;20233;-54
2021/07/16 06:39:42;;;;;;;0.68;0.68;;;24.60;68.80;;;;;;4995738;28;20206;-54
2021/07/16 06:42:08;;;;;;;1.85;0.70;;;24.60;68.70;;;;;;4989197;28;20672;-54
2021/07/16 06:44:34;;;;;;;0.60;0.60;;;24.60;68.80;;;;;;5000058;28;20225;-54
2021/07/16 06:47:01;;;;;;;0.70;0.70;;;24.60;68.70;;;;;;4990662;28;20227;-55
2021/07/16 06:49:28;;;;;;;1.08;0.60;;;24.60;68.80;;;;;;4990689;28;20714;-54
2021/07/16 06:51:54;;;;;;;0.95;0.65;;;24.60;68.80;;;;;;4987347;28;20227;-53
2021/07/16 06:54:21;;;;;;;0.60;0.60;;;24.60;68.80;;;;;;4977589;28;20207;-54
2021/07/16 06:56:47;;;;;;;0.70;0.70;;;24.60;68.70;;;;;;5005059;28;20235;-54
2021/07/16 06:59:14;;;;;;;0.98;0.80;;;24.60;68.70;;;;;;4997327;28;20714;-52
2021/07/16 07:01:40;;;;;;;0.60;0.60;;;24.60;68.70;;;;;;4989568;28;20727;-52
2021/07/16 07:04:07;;;;;;;0.52;0.52;;;24.60;68.70;;;;;;4992861;28;20634;-53
2021/07/16 07:06:33;;;;;;;0.65;0.60;;;24.60;68.80;;;;;;4999427;28;20293;-53
2021/07/16 07:08:59;;;;;;;0.55;0.55;;;24.60;68.80;;;;;;5009771;28;20203;-51
2021/07/16 07:11:26;;;;;;;0.70;0.60;;;24.60;68.70;;;;;;5004219;28;20227;-52
2021/07/16 07:13:53;;;;;;;1.77;0.93;;;24.60;68.70;;;;;;4995860;28;20303;-61
2021/07/16 07:16:20;;;;;;;1.90;1.10;;;24.60;69.10;;;;;;5003310;28;20238;-48
2021/07/16 07:18:46;;;;;;;1.48;0.90;;;24.60;69.40;;;;;;5000531;28;20299;-59
2021/07/16 07:21:13;;;;;;;2.30;1.00;;;24.60;69.30;;;;;;4996838;28;20610;-58
2021/07/16 07:23:39;;;;;;;4.80;0.95;;;24.60;69.10;;;;;;5001627;28;20203;-55
2021/07/16 07:26:06;;;;;;;3.53;1.38;;;24.60;69.10;;;;;;5005224;28;20239;-56
2021/07/16 07:28:32;;;;;;;4.10;1.83;;;24.60;69.40;;;;;;5005350;28;20203;-59
2021/07/16 07:30:58;;;;;;;4.18;1.48;;;24.60;69.20;;;;;;4993001;28;20231;-62
2021/07/16 07:33:25;;;;;;;3.17;1.20;;;24.60;69.10;;;;;;5005343;28;20212;-59
2021/07/16 07:35:51;;;;;;;2.60;1.35;;;24.60;69.30;;;;;;5004012;28;20206;-58
2021/07/16 07:38:18;;;;;;;3.85;1.60;;;24.70;69.60;;;;;;4988144;28;20294;-57
2021/07/16 07:40:44;;;;;;;7.47;3.25;;;24.60;69.50;;;;;;4993564;28;20283;-59
2021/07/16 07:43:11;;;;;;;4.05;2.10;;;24.70;70.00;;;;;;5006506;28;20205;-59
2021/07/16 07:45:37;;;;;;;6.05;2.05;;;24.60;70.00;;;;;;4995584;28;20228;-59
2021/07/16 07:48:03;;;;;;;4.50;1.80;;;24.60;70.10;;;;;;5010589;28;20199;-55
2021/07/16 07:50:30;;;;;;;4.80;1.63;;;24.10;67.20;;;;;;4997725;28;20206;-53
2021/07/16 07:52:56;;;;;;;2.05;1.65;;;23.80;69.60;;;;;;4993879;28;20200;-54
2021/07/16 07:55:24;;;;;;;2.05;1.30;;;23.00;67.80;;;;;;4997216;28;20490;-54
2021/07/16 07:57:51;;;;;;;1.65;1.20;;;22.50;69.70;;;;;;4999491;28;20223;-51
2021/07/16 08:00:17;;;;;;;1.42;1.33;;;22.80;68.40;;;;;;5010311;28;20203;-50
2021/07/16 08:02:44;;;;;;;1.75;1.50;;;22.20;68.60;;;;;;5008545;28;20214;-53
2021/07/16 08:05:10;;;;;;;2.65;1.40;;;21.90;69.20;;;;;;5003693;28;20220;-56
2021/07/16 08:07:37;;;;;;;2.85;1.40;;;21.50;70.20;;;;;;4981086;28;20234;-54
2021/07/16 08:10:03;;;;;;;1.65;1.25;;;21.10;71.30;;;;;;4992367;28;20211;-54
2021/07/16 08:12:30;;;;;;;1.50;1.40;;;21.30;71.60;;;;;;4993060;28;20195;-53
2021/07/16 08:14:56;;;;;;;2.13;1.30;;;21.30;70.50;;;;;;5012167;28;20207;-53
2021/07/16 08:17:23;;;;;;;1.60;1.50;;;21.20;71.00;;;;;;4995214;28;20224;-54
2021/07/16 08:19:49;;;;;;;1.40;1.30;;;21.50;69.80;;;;;;4999421;28;20304;-51
2021/07/16 08:22:15;;;;;;;2.53;1.48;;;21.30;70.40;;;;;;4995269;28;20260;-54
2021/07/16 08:24:43;;;;;;;3.30;2.63;;;21.10;70.90;;;;;;5005826;28;20216;-54
2021/07/16 08:27:09;;;;;;;2.55;1.90;;;21.40;70.60;;;;;;4992070;28;20248;-56
2021/07/16 08:29:35;;;;;;;3.72;1.98;;;21.50;70.20;;;;;;4988246;28;20306;-47
2021/07/16 08:32:02;;;;;;;3.72;1.60;;;21.90;70.30;;;;;;4995265;28;20209;-47
2021/07/16 08:34:28;;;;;;;1.60;1.38;;;22.30;69.60;;;;;;5008380;28;20213;-49
2021/07/16 08:36:55;;;;;;;2.97;1.70;;;22.70;69.70;;;;;;5003693;28;20226;-44
2021/07/16 08:39:21;;;;;;;2.03;1.50;;;22.90;69.60;;;;;;4997244;28;20658;-53
2021/07/16 08:41:48;;;;;;;4.20;1.42;;;23.10;69.30;;;;;;4991611;28;20211;-53
2021/07/16 08:44:14;;;;;;;1.33;1.10;;;23.20;69.00;;;;;;5004132;28;20231;-58
2021/07/16 08:46:41;;;;;;;2.30;1.30;;;23.40;69.10;;;;;;5004393;28;20238;-55
2021/07/16 08:49:07;;;;;;;1.33;1.20;;;23.50;69.00;;;;;;4994674;28;20197;-53
2021/07/16 08:51:34;;;;;;;1.98;1.50;;;23.50;68.80;;;;;;4993592;28;20579;-50
2021/07/16 08:54:00;;;;;;;3.13;1.20;;;23.60;68.80;;;;;;4994048;28;20219;-48
2021/07/16 08:56:27;;;;;;;1.48;1.30;;;23.70;68.70;;;;;;4992498;28;20234;-52
2021/07/16 08:58:53;;;;;;;3.30;1.20;;;23.70;68.70;;;;;;4995493;28;20299;-52
2021/07/16 09:01:20;;;;;;;3.95;2.08;;;23.80;69.30;;;;;;4994533;28;20218;-50
2021/07/16 09:03:46;;;;;;;6.72;1.83;;;23.80;69.00;;;;;;4993590;28;20203;-55
2021/07/16 09:06:13;;;;;;;2.90;1.38;;;23.90;69.30;;;;;;4987561;28;20236;-51
2021/07/16 09:08:39;;;;;;;2.63;1.20;;;23.90;69.10;;;;;;4990523;28;20722;-54
2021/07/16 09:11:05;;;;;;;1.20;1.10;;;23.90;68.90;;;;;;4992656;28;20659;-50
2021/07/16 09:13:32;;;;;;;1.85;1.10;;;23.90;68.70;;;;;;4990924;28;20196;-48
2021/07/16 09:15:59;;;;;;;3.83;1.33;;;23.90;68.50;;;;;;4991177;28;20243;-50
2021/07/16 09:18:26;;;;;;;4.15;1.25;;;24.00;68.60;;;;;;4972238;28;20200;-52
2021/07/16 09:20:52;;;;;;;2.85;1.30;;;24.00;68.60;;;;;;4972170;28;20247;-52
2021/07/16 09:23:19;;;;;;;1.95;1.40;;;24.00;68.60;;;;;;4972885;28;20306;-49
2021/07/16 09:25:45;;;;;;;1.98;1.10;;;24.00;68.40;;;;;;4988855;28;20320;-50
2021/07/16 09:28:12;;;;;;;6.00;1.25;;;24.00;68.50;;;;;;4995349;28;20207;-52
2021/07/16 09:30:38;;;;;;;1.95;1.10;;;24.00;68.50;;;;;;5010086;28;20297;-48
2021/07/16 09:33:05;;;;;;;1.70;1.20;;;24.00;68.40;;;;;;5011089;28;20294;-49
2021/07/16 09:35:33;;;;;;;1.67;0.98;;;24.00;68.30;;;;;;4993227;28;20883;-52
2021/07/16 09:37:59;;;;;;;1.95;1.00;;;24.00;68.30;;;;;;4991364;28;20211;-49
2021/07/16 09:40:26;;;;;;;1.63;1.52;;;24.10;68.40;;;;;;4990770;28;20239;-51
2021/07/16 09:42:52;;;;;;;1.20;1.10;;;24.10;68.40;;;;;;4991333;28;20224;-50
2021/07/16 09:45:19;;;;;;;1.65;1.38;;;24.10;68.30;;;;;;4986954;28;20247;-52
2021/07/16 09:47:45;;;;;;;3.08;1.73;;;24.10;68.30;;;;;;4978026;28;20215;-50
2021/07/16 09:50:12;;;;;;;1.40;1.15;;;24.10;68.30;;;;;;4971190;28;20302;-51
2021/07/16 09:52:38;;;;;;;11.85;2.40;;;24.10;68.20;;;;;;4971377;28;20244;-50
2021/07/16 09:55:05;;;;;;;0.70;0.70;;;24.20;68.30;;;;;;4977971;28;20608;-47
2021/07/16 09:57:31;;;;;;;1.42;0.90;;;24.20;68.30;;;;;;4990484;28;20200;-48
2021/07/16 09:59:57;;;;;;;1.90;1.08;;;24.20;68.40;;;;;;4990343;28;20223;-46
2021/07/16 10:02:24;;;;;;;1.92;1.10;;;24.20;68.30;;;;;;4991225;28;20222;-49
2021/07/16 10:04:50;;;;;;;2.97;1.10;;;24.20;68.30;;;;;;4990255;28;20633;-48
2021/07/16 10:07:17;;;;;;;1.35;1.13;;;24.20;68.30;;;;;;4990402;28;20688;-52
2021/07/16 10:09:43;;;;;;;1.80;1.10;;;24.30;68.40;;;;;;4988742;28;20680;-51
2021/07/16 10:12:10;;;;;;;2.05;1.20;;;24.30;68.40;;;;;;4990687;28;20204;-48
2021/07/16 10:14:36;;;;;;;1.83;1.23;;;24.30;68.40;;;;;;4984499;28;20212;-56
2021/07/16 10:17:03;;;;;;;1.52;1.10;;;24.30;69.00;;;;;;4989249;28;20237;-53
2021/07/16 10:19:29;;;;;;;1.33;1.13;;;24.30;69.20;;;;;;4989107;28;20745;-49
2021/07/16 10:21:56;;;;;;;1.88;1.20;;;24.30;69.10;;;;;;4989956;28;20207;-53
2021/07/16 10:24:23;;;;;;;2.00;1.20;;;24.30;68.90;;;;;;5004503;28;20285;-49
2021/07/16 10:26:49;;;;;;;2.10;1.30;;;24.30;68.50;;;;;;4992315;28;20283;-46
2021/07/16 10:29:15;;;;;;;1.30;1.02;;;24.30;68.40;;;;;;4994839;28;20205;-47
2021/07/16 10:31:42;;;;;;;1.30;1.20;;;24.30;68.20;;;;;;4988672;28;20227;-53
2021/07/16 10:34:09;;;;;;;1.40;1.20;;;24.30;67.70;;;;;;4993629;28;20213;-49
2021/07/16 10:36:35;;;;;;;2.28;1.20;;;24.30;67.30;;;;;;5003170;28;20284;-49
2021/07/16 10:39:01;;;;;;;1.77;1.17;;;24.30;67.30;;;;;;4999139;28;20218;-57
2021/07/16 10:41:28;;;;;;;2.80;1.40;;;24.30;67.40;;;;;;4992906;28;20200;-53
2021/07/16 10:43:54;;;;;;;1.73;1.20;;;24.20;68.20;;;;;;4994671;28;20294;-55
2021/07/16 10:46:21;;;;;;;1.52;1.42;;;24.20;68.10;;;;;;4994501;28;20266;-54
2021/07/16 10:48:47;;;;;;;2.47;1.73;;;24.20;68.00;;;;;;5002352;28;20204;-52
2021/07/16 10:51:14;;;;;;;1.20;1.10;;;24.30;67.90;;;;;;4998671;28;20676;-54
2021/07/16 10:53:41;;;;;;;0.90;0.90;;;24.30;67.60;;;;;;5001778;28;20204;-54
2021/07/16 10:56:08;;;;;;;1.90;1.00;;;24.30;67.40;;;;;;5003065;28;20231;-55
2021/07/16 10:58:34;;;;;;;1.50;1.25;;;24.30;67.40;;;;;;4996914;28;20704;-54
2021/07/16 11:01:02;;;;;;;1.17;1.05;;;24.30;67.30;;;;;;5004503;28;20714;-56
2021/07/16 11:03:28;;;;;;;1.65;1.10;;;24.30;67.30;;;;;;5010613;28;20211;-59
2021/07/16 11:05:54;;;;;;;1.10;1.00;;;24.30;67.40;;;;;;4995171;28;20227;-59
2021/07/16 11:08:21;;;;;;;1.40;1.30;;;24.30;67.20;;;;;;4990137;28;20295;-59
2021/07/16 11:10:47;;;;;;;1.17;0.85;;;24.40;68.20;;;;;;4990602;28;20903;-59
2021/07/16 11:13:14;;;;;;;1.98;1.08;;;24.30;67.30;;;;;;5010006;28;20585;-59
2021/07/16 11:15:40;;;;;;;2.22;1.23;;;24.40;67.70;;;;;;5001443;28;20702;-59
2021/07/16 11:18:07;;;;;;;1.00;1.00;;;24.30;67.60;;;;;;5003541;28;20636;-60
2021/07/16 11:20:35;;;;;;;1.27;1.05;;;24.30;67.70;;;;;;4992729;28;20271;-59
2021/07/16 11:23:02;;;;;;;1.45;1.08;;;24.40;67.80;;;;;;4993126;28;20199;-59
2021/07/16 11:25:28;;;;;;;0.90;0.90;;;24.40;67.60;;;;;;4991667;28;20705;-60
2021/07/16 11:27:55;;;;;;;2.45;1.27;;;24.40;67.60;;;;;;4994876;28;20760;-61
2021/07/16 11:30:21;;;;;;;1.20;1.10;;;24.40;67.70;;;;;;4992458;28;20564;-58
2021/07/16 11:32:48;;;;;;;1.83;1.00;;;24.40;67.90;;;;;;4993021;28;20208;-56
2021/07/16 11:35:15;;;;;;;3.47;1.20;;;24.40;68.70;;;;;;4992380;28;20228;-59
2021/07/16 11:37:41;;;;;;;1.30;1.20;;;24.40;67.60;;;;;;4992459;28;20743;-59
2021/07/16 11:40:08;;;;;;;1.55;1.33;;;24.40;67.60;;;;;;4992176;28;20286;-59
2021/07/16 11:42:34;;;;;;;11.68;4.88;;;24.40;67.80;;;;;;5008555;28;20298;-58
2021/07/16 11:45:01;;;;;;;5.68;3.95;;;24.40;67.90;;;;;;5002510;28;20227;-59
2021/07/16 11:47:27;;;;;;;7.95;4.40;;;24.40;67.90;;;;;;5003916;28;20227;-59
2021/07/16 11:49:54;;;;;;;8.00;3.83;;;24.40;68.10;;;;;;4982720;28;20204;-59
2021/07/16 11:52:20;;;;;;;8.93;4.47;;;24.40;68.00;;;;;;4992621;28;20242;-59
2021/07/16 11:54:47;;;;;;;7.35;4.13;;;24.40;68.10;;;;;;4992451;28;20534;-59
2021/07/16 11:57:13;;;;;;;5.13;2.80;;;24.40;67.90;;;;;;4991781;28;20230;-59
2021/07/16 11:59:40;;;;;;;6.55;3.17;;;24.50;68.00;;;;;;4990753;28;20555;-56
2021/07/16 12:02:06;;;;;;;6.45;3.17;;;24.50;68.40;;;;;;4997944;28;20580;-57
2021/07/16 12:04:33;;;;;;;4.53;3.00;;;24.50;67.90;;;;;;4990811;28;20717;-58
2021/07/16 12:06:59;;;;;;;5.80;2.55;;;24.50;67.90;;;;;;4990385;28;20228;-56
2021/07/16 12:09:26;;;;;;;4.68;2.38;;;24.50;67.80;;;;;;4989643;28;20636;-57
2021/07/16 12:11:52;;;;;;;5.45;2.33;;;24.50;67.00;;;;;;4992274;28;20196;-56
2021/07/16 12:14:19;;;;;;;3.47;1.85;;;24.40;66.80;;;;;;4991986;28;20718;-56
2021/07/16 12:16:45;;;;;;;3.58;2.15;;;24.40;66.30;;;;;;4991700;28;20612;-55
2021/07/16 12:19:12;;;;;;;4.38;1.80;;;24.40;66.50;;;;;;4991898;28;20654;-57
2021/07/16 12:21:41;;;;;;;4.70;1.92;;;24.40;66.50;;;;;;4990761;28;20615;-56
2021/07/16 12:24:07;;;;;;;2.50;1.60;;;24.50;66.40;;;;;;4982238;28;20314;-57
2021/07/16 12:26:34;;;;;;;1.27;1.00;;;24.40;66.10;;;;;;4985869;28;20246;-57
2021/07/16 12:29:00;;;;;;;2.42;1.33;;;24.40;65.90;;;;;;4990547;28;20208;-56
2021/07/16 12:31:27;;;;;;;3.15;1.10;;;24.40;65.50;;;;;;4992566;28;20254;-58
2021/07/16 12:33:53;;;;;;;1.80;1.20;;;24.50;65.60;;;;;;4990022;28;20235;-58
2021/07/16 12:36:20;;;;;;;3.90;1.63;;;24.50;65.80;;;;;;4992050;28;20295;-57
2021/07/16 12:38:46;;;;;;;1.70;1.30;;;24.40;65.80;;;;;;4993807;28;20211;-58
2021/07/16 12:41:13;;;;;;;2.00;1.40;;;24.40;65.90;;;;;;4991670;28;20204;-58
2021/07/16 12:43:39;;;;;;;2.78;1.20;;;24.40;65.80;;;;;;4991370;28;20230;-58